sensor_id;sensor_type;location;lat;lon;timestamp;P1;durP1;ratioP1;P2;durP2;ratioP2
38132;SDS011;23948;43.252;26.572;2023-04-08T00:01:27;32.05;;;24.65;;
38132;SDS011;23948;43.252;26.572;2023-04-08T00:03:52;33.75;;;25.92;;
38132;SDS011;23948;43.252;26.572;2023-04-08T00:06:17;33.67;;;23.45;;
38132;SDS011;23948;43.252;26.572;2023-04-08T00:08:43;27.02;;;20.83;;
38132;SDS011;23948;43.252;26.572;2023-04-08T00:11:08;35.03;;;26.35;;
38132;SDS011;23948;43.252;26.572;2023-04-08T00:13:34;33.20;;;25.35;;
38132;SDS011;23948;43.252;26.572;2023-04-08T00:15:59;35.00;;;26.45;;
38132;SDS011;23948;43.252;26.572;2023-04-08T00:18:24;40.75;;;27.20;;
38132;SDS011;23948;43.252;26.572;2023-04-08T00:20:51;41.00;;;28.83;;
38132;SDS011;23948;43.252;26.572;2023-04-08T00:23:16;43.75;;;28.90;;
38132;SDS011;23948;43.252;26.572;2023-04-08T00:25:42;41.53;;;29.45;;
38132;SDS011;23948;43.252;26.572;2023-04-08T00:28:07;39.22;;;28.80;;
38132;SDS011;23948;43.252;26.572;2023-04-08T00:30:33;40.42;;;28.98;;
38132;SDS011;23948;43.252;26.572;2023-04-08T00:32:58;42.92;;;29.85;;
38132;SDS011;23948;43.252;26.572;2023-04-08T00:35:23;28.33;;;21.70;;
38132;SDS011;23948;43.252;26.572;2023-04-08T00:37:49;25.27;;;19.67;;
38132;SDS011;23948;43.252;26.572;2023-04-08T00:40:15;26.40;;;19.95;;
38132;SDS011;23948;43.252;26.572;2023-04-08T00:42:40;22.65;;;18.35;;
38132;SDS011;23948;43.252;26.572;2023-04-08T00:45:06;22.17;;;17.92;;
38132;SDS011;23948;43.252;26.572;2023-04-08T00:47:31;22.77;;;18.25;;
38132;SDS011;23948;43.252;26.572;2023-04-08T00:49:57;23.38;;;18.08;;
38132;SDS011;23948;43.252;26.572;2023-04-08T00:52:22;24.65;;;18.95;;
38132;SDS011;23948;43.252;26.572;2023-04-08T00:54:47;23.83;;;18.98;;
38132;SDS011;23948;43.252;26.572;2023-04-08T00:57:12;26.55;;;18.65;;
38132;SDS011;23948;43.252;26.572;2023-04-08T00:59:38;22.63;;;18.25;;
38132;SDS011;23948;43.252;26.572;2023-04-08T01:04:44;25.63;;;20.48;;
38132;SDS011;23948;43.252;26.572;2023-04-08T01:07:16;31.52;;;23.85;;
38132;SDS011;23948;43.252;26.572;2023-04-08T01:09:44;31.00;;;23.85;;
38132;SDS011;23948;43.252;26.572;2023-04-08T01:12:10;34.42;;;25.30;;
38132;SDS011;23948;43.252;26.572;2023-04-08T01:14:37;32.72;;;24.40;;
38132;SDS011;23948;43.252;26.572;2023-04-08T01:17:04;32.63;;;23.33;;
38132;SDS011;23948;43.252;26.572;2023-04-08T01:19:32;27.02;;;21.75;;
38132;SDS011;23948;43.252;26.572;2023-04-08T01:22:09;26.58;;;20.90;;
38132;SDS011;23948;43.252;26.572;2023-04-08T01:24:35;26.90;;;20.60;;
38132;SDS011;23948;43.252;26.572;2023-04-08T01:27:04;29.17;;;22.27;;
38132;SDS011;23948;43.252;26.572;2023-04-08T01:29:29;29.85;;;23.25;;
38132;SDS011;23948;43.252;26.572;2023-04-08T01:31:55;27.35;;;22.00;;
38132;SDS011;23948;43.252;26.572;2023-04-08T01:34:21;28.15;;;21.52;;
38132;SDS011;23948;43.252;26.572;2023-04-08T01:36:47;26.00;;;20.35;;
38132;SDS011;23948;43.252;26.572;2023-04-08T01:39:14;26.10;;;20.65;;
38132;SDS011;23948;43.252;26.572;2023-04-08T01:41:41;29.95;;;21.85;;
38132;SDS011;23948;43.252;26.572;2023-04-08T01:44:06;28.60;;;23.73;;
38132;SDS011;23948;43.252;26.572;2023-04-08T01:46:32;29.98;;;24.02;;
38132;SDS011;23948;43.252;26.572;2023-04-08T01:48:58;29.05;;;24.02;;
38132;SDS011;23948;43.252;26.572;2023-04-08T01:51:25;32.40;;;26.80;;
38132;SDS011;23948;43.252;26.572;2023-04-08T01:53:51;30.45;;;25.08;;
38132;SDS011;23948;43.252;26.572;2023-04-08T01:56:16;30.52;;;23.50;;
38132;SDS011;23948;43.252;26.572;2023-04-08T01:58:45;28.73;;;22.63;;
38132;SDS011;23948;43.252;26.572;2023-04-08T02:01:13;26.35;;;21.42;;
38132;SDS011;23948;43.252;26.572;2023-04-08T02:03:40;26.20;;;21.05;;
38132;SDS011;23948;43.252;26.572;2023-04-08T02:06:06;26.23;;;20.98;;
38132;SDS011;23948;43.252;26.572;2023-04-08T02:08:32;26.48;;;21.50;;
38132;SDS011;23948;43.252;26.572;2023-04-08T02:10:58;28.65;;;22.40;;
38132;SDS011;23948;43.252;26.572;2023-04-08T02:13:23;27.60;;;22.13;;
38132;SDS011;23948;43.252;26.572;2023-04-08T02:18:35;26.10;;;21.52;;
38132;SDS011;23948;43.252;26.572;2023-04-08T02:21:10;30.95;;;24.65;;
38132;SDS011;23948;43.252;26.572;2023-04-08T02:23:37;29.40;;;23.73;;
38132;SDS011;23948;43.252;26.572;2023-04-08T02:26:02;31.38;;;25.05;;
38132;SDS011;23948;43.252;26.572;2023-04-08T02:28:28;32.03;;;25.63;;
38132;SDS011;23948;43.252;26.572;2023-04-08T02:30:54;30.38;;;23.95;;
38132;SDS011;23948;43.252;26.572;2023-04-08T02:33:22;29.02;;;23.35;;
38132;SDS011;23948;43.252;26.572;2023-04-08T02:35:48;30.33;;;24.63;;
38132;SDS011;23948;43.252;26.572;2023-04-08T02:38:14;35.05;;;25.25;;
38132;SDS011;23948;43.252;26.572;2023-04-08T02:40:40;30.52;;;24.92;;
38132;SDS011;23948;43.252;26.572;2023-04-08T02:43:05;32.92;;;25.77;;
38132;SDS011;23948;43.252;26.572;2023-04-08T02:45:32;30.98;;;24.98;;
38132;SDS011;23948;43.252;26.572;2023-04-08T02:47:58;31.30;;;24.98;;
38132;SDS011;23948;43.252;26.572;2023-04-08T02:50:24;30.58;;;24.20;;
38132;SDS011;23948;43.252;26.572;2023-04-08T02:52:49;33.38;;;25.60;;
38132;SDS011;23948;43.252;26.572;2023-04-08T02:55:14;31.75;;;24.48;;
38132;SDS011;23948;43.252;26.572;2023-04-08T02:57:40;33.80;;;26.27;;
38132;SDS011;23948;43.252;26.572;2023-04-08T03:00:06;33.70;;;27.27;;
38132;SDS011;23948;43.252;26.572;2023-04-08T03:02:32;37.85;;;27.85;;
38132;SDS011;23948;43.252;26.572;2023-04-08T03:04:57;35.67;;;27.60;;
38132;SDS011;23948;43.252;26.572;2023-04-08T03:07:23;33.60;;;27.83;;
38132;SDS011;23948;43.252;26.572;2023-04-08T03:09:48;32.17;;;25.13;;
38132;SDS011;23948;43.252;26.572;2023-04-08T03:12:13;32.13;;;24.45;;
38132;SDS011;23948;43.252;26.572;2023-04-08T03:14:38;34.20;;;25.83;;
38132;SDS011;23948;43.252;26.572;2023-04-08T03:17:04;32.47;;;24.88;;
38132;SDS011;23948;43.252;26.572;2023-04-08T03:19:29;30.08;;;24.08;;
38132;SDS011;23948;43.252;26.572;2023-04-08T03:21:55;30.15;;;23.25;;
38132;SDS011;23948;43.252;26.572;2023-04-08T03:24:20;28.17;;;23.08;;
38132;SDS011;23948;43.252;26.572;2023-04-08T03:26:45;27.65;;;22.75;;
38132;SDS011;23948;43.252;26.572;2023-04-08T03:29:11;30.33;;;23.42;;
38132;SDS011;23948;43.252;26.572;2023-04-08T03:31:36;30.63;;;23.35;;
38132;SDS011;23948;43.252;26.572;2023-04-08T03:34:01;31.02;;;22.83;;
38132;SDS011;23948;43.252;26.572;2023-04-08T03:36:26;32.75;;;25.40;;
38132;SDS011;23948;43.252;26.572;2023-04-08T03:38:52;30.45;;;24.40;;
38132;SDS011;23948;43.252;26.572;2023-04-08T03:41:17;29.50;;;23.85;;
38132;SDS011;23948;43.252;26.572;2023-04-08T03:43:43;28.10;;;23.38;;
38132;SDS011;23948;43.252;26.572;2023-04-08T03:46:08;29.67;;;23.58;;
38132;SDS011;23948;43.252;26.572;2023-04-08T03:48:33;30.27;;;23.92;;
38132;SDS011;23948;43.252;26.572;2023-04-08T03:50:58;29.40;;;23.92;;
38132;SDS011;23948;43.252;26.572;2023-04-08T03:53:24;34.88;;;26.20;;
38132;SDS011;23948;43.252;26.572;2023-04-08T03:55:52;31.73;;;24.65;;
38132;SDS011;23948;43.252;26.572;2023-04-08T03:58:17;30.35;;;23.65;;
38132;SDS011;23948;43.252;26.572;2023-04-08T04:00:42;30.60;;;23.58;;
38132;SDS011;23948;43.252;26.572;2023-04-08T04:03:08;29.85;;;23.70;;
38132;SDS011;23948;43.252;26.572;2023-04-08T04:05:36;30.13;;;24.63;;
38132;SDS011;23948;43.252;26.572;2023-04-08T04:08:02;30.17;;;24.23;;
38132;SDS011;23948;43.252;26.572;2023-04-08T04:10:27;31.70;;;23.88;;
38132;SDS011;23948;43.252;26.572;2023-04-08T04:12:52;28.58;;;22.83;;
38132;SDS011;23948;43.252;26.572;2023-04-08T04:15:17;27.25;;;21.10;;
38132;SDS011;23948;43.252;26.572;2023-04-08T04:17:43;25.33;;;21.38;;
38132;SDS011;23948;43.252;26.572;2023-04-08T04:20:08;30.10;;;23.77;;
38132;SDS011;23948;43.252;26.572;2023-04-08T04:22:34;30.05;;;24.00;;
38132;SDS011;23948;43.252;26.572;2023-04-08T04:24:59;27.58;;;22.67;;
38132;SDS011;23948;43.252;26.572;2023-04-08T04:27:24;32.05;;;25.45;;
38132;SDS011;23948;43.252;26.572;2023-04-08T04:29:50;36.15;;;28.63;;
38132;SDS011;23948;43.252;26.572;2023-04-08T04:32:15;48.45;;;36.03;;
38132;SDS011;23948;43.252;26.572;2023-04-08T04:34:40;42.88;;;33.20;;
38132;SDS011;23948;43.252;26.572;2023-04-08T04:37:06;46.00;;;32.50;;
38132;SDS011;23948;43.252;26.572;2023-04-08T04:39:31;36.47;;;28.30;;
38132;SDS011;23948;43.252;26.572;2023-04-08T04:41:56;31.45;;;25.33;;
38132;SDS011;23948;43.252;26.572;2023-04-08T04:44:21;31.25;;;24.52;;
38132;SDS011;23948;43.252;26.572;2023-04-08T04:46:47;33.40;;;25.48;;
38132;SDS011;23948;43.252;26.572;2023-04-08T04:49:12;30.65;;;24.23;;
38132;SDS011;23948;43.252;26.572;2023-04-08T04:51:37;32.97;;;25.25;;
38132;SDS011;23948;43.252;26.572;2023-04-08T04:54:03;31.55;;;26.15;;
38132;SDS011;23948;43.252;26.572;2023-04-08T04:56:28;30.73;;;24.27;;
38132;SDS011;23948;43.252;26.572;2023-04-08T04:58:53;35.15;;;25.92;;
38132;SDS011;23948;43.252;26.572;2023-04-08T05:01:18;30.95;;;24.85;;
38132;SDS011;23948;43.252;26.572;2023-04-08T05:03:44;30.35;;;24.08;;
38132;SDS011;23948;43.252;26.572;2023-04-08T05:06:09;27.23;;;22.27;;
38132;SDS011;23948;43.252;26.572;2023-04-08T05:08:35;31.80;;;23.67;;
38132;SDS011;23948;43.252;26.572;2023-04-08T05:11:00;27.85;;;21.52;;
38132;SDS011;23948;43.252;26.572;2023-04-08T05:13:29;27.73;;;23.23;;
38132;SDS011;23948;43.252;26.572;2023-04-08T05:15:54;28.80;;;22.63;;
38132;SDS011;23948;43.252;26.572;2023-04-08T05:18:19;29.90;;;23.10;;
38132;SDS011;23948;43.252;26.572;2023-04-08T05:20:45;25.83;;;21.88;;
38132;SDS011;23948;43.252;26.572;2023-04-08T05:23:10;27.92;;;22.20;;
38132;SDS011;23948;43.252;26.572;2023-04-08T05:25:36;27.02;;;22.27;;
38132;SDS011;23948;43.252;26.572;2023-04-08T05:28:01;28.27;;;22.42;;
38132;SDS011;23948;43.252;26.572;2023-04-08T05:30:26;27.52;;;21.92;;
38132;SDS011;23948;43.252;26.572;2023-04-08T05:32:52;29.88;;;23.67;;
38132;SDS011;23948;43.252;26.572;2023-04-08T05:35:17;29.52;;;22.65;;
38132;SDS011;23948;43.252;26.572;2023-04-08T05:37:42;30.08;;;22.48;;
38132;SDS011;23948;43.252;26.572;2023-04-08T05:40:08;27.33;;;21.65;;
38132;SDS011;23948;43.252;26.572;2023-04-08T05:42:33;26.13;;;21.67;;
38132;SDS011;23948;43.252;26.572;2023-04-08T05:44:58;30.77;;;24.38;;
38132;SDS011;23948;43.252;26.572;2023-04-08T05:47:24;32.33;;;26.05;;
38132;SDS011;23948;43.252;26.572;2023-04-08T05:49:49;31.58;;;25.05;;
38132;SDS011;23948;43.252;26.572;2023-04-08T05:52:14;30.27;;;24.92;;
38132;SDS011;23948;43.252;26.572;2023-04-08T05:54:43;27.67;;;21.33;;
38132;SDS011;23948;43.252;26.572;2023-04-08T05:57:10;29.77;;;22.40;;
38132;SDS011;23948;43.252;26.572;2023-04-08T05:59:35;26.65;;;21.92;;
38132;SDS011;23948;43.252;26.572;2023-04-08T06:02:00;27.13;;;21.85;;
38132;SDS011;23948;43.252;26.572;2023-04-08T06:04:26;28.00;;;21.98;;
38132;SDS011;23948;43.252;26.572;2023-04-08T06:06:51;26.25;;;20.77;;
38132;SDS011;23948;43.252;26.572;2023-04-08T06:09:16;27.08;;;20.58;;
38132;SDS011;23948;43.252;26.572;2023-04-08T06:11:41;26.05;;;21.40;;
38132;SDS011;23948;43.252;26.572;2023-04-08T06:14:07;30.67;;;22.48;;
38132;SDS011;23948;43.252;26.572;2023-04-08T06:16:32;30.02;;;22.10;;
38132;SDS011;23948;43.252;26.572;2023-04-08T06:18:57;27.58;;;22.55;;
38132;SDS011;23948;43.252;26.572;2023-04-08T06:21:23;26.38;;;21.45;;
38132;SDS011;23948;43.252;26.572;2023-04-08T06:23:48;30.88;;;22.08;;
38132;SDS011;23948;43.252;26.572;2023-04-08T06:26:13;26.48;;;20.95;;
38132;SDS011;23948;43.252;26.572;2023-04-08T06:28:38;28.27;;;22.13;;
38132;SDS011;23948;43.252;26.572;2023-04-08T06:31:04;28.83;;;21.60;;
38132;SDS011;23948;43.252;26.572;2023-04-08T06:33:30;28.00;;;21.67;;
38132;SDS011;23948;43.252;26.572;2023-04-08T06:36:02;35.17;;;25.63;;
38132;SDS011;23948;43.252;26.572;2023-04-08T06:38:27;33.17;;;23.90;;
38132;SDS011;23948;43.252;26.572;2023-04-08T06:40:53;29.92;;;24.80;;
38132;SDS011;23948;43.252;26.572;2023-04-08T06:43:18;33.15;;;24.98;;
38132;SDS011;23948;43.252;26.572;2023-04-08T06:45:43;25.75;;;20.55;;
38132;SDS011;23948;43.252;26.572;2023-04-08T06:48:09;34.33;;;23.92;;
38132;SDS011;23948;43.252;26.572;2023-04-08T06:50:34;23.58;;;18.20;;
38132;SDS011;23948;43.252;26.572;2023-04-08T06:53:00;22.27;;;16.52;;
38132;SDS011;23948;43.252;26.572;2023-04-08T06:55:25;22.35;;;17.02;;
38132;SDS011;23948;43.252;26.572;2023-04-08T06:57:51;21.17;;;16.73;;
38132;SDS011;23948;43.252;26.572;2023-04-08T07:00:16;21.85;;;16.63;;
38132;SDS011;23948;43.252;26.572;2023-04-08T07:02:41;19.00;;;14.85;;
38132;SDS011;23948;43.252;26.572;2023-04-08T07:05:07;19.13;;;13.88;;
38132;SDS011;23948;43.252;26.572;2023-04-08T07:07:32;16.08;;;14.18;;
38132;SDS011;23948;43.252;26.572;2023-04-08T07:09:57;24.88;;;20.05;;
38132;SDS011;23948;43.252;26.572;2023-04-08T07:12:22;16.73;;;14.02;;
38132;SDS011;23948;43.252;26.572;2023-04-08T07:14:48;21.33;;;17.00;;
38132;SDS011;23948;43.252;26.572;2023-04-08T07:17:13;18.67;;;13.38;;
38132;SDS011;23948;43.252;26.572;2023-04-08T07:19:38;16.83;;;12.50;;
38132;SDS011;23948;43.252;26.572;2023-04-08T07:22:03;16.35;;;11.95;;
38132;SDS011;23948;43.252;26.572;2023-04-08T07:24:29;13.40;;;11.90;;
38132;SDS011;23948;43.252;26.572;2023-04-08T07:26:54;17.60;;;13.73;;
38132;SDS011;23948;43.252;26.572;2023-04-08T07:29:20;22.15;;;13.40;;
38132;SDS011;23948;43.252;26.572;2023-04-08T07:31:46;17.05;;;13.43;;
38132;SDS011;23948;43.252;26.572;2023-04-08T07:34:11;21.77;;;13.95;;
38132;SDS011;23948;43.252;26.572;2023-04-08T07:36:36;17.60;;;13.93;;
38132;SDS011;23948;43.252;26.572;2023-04-08T07:39:02;17.88;;;15.13;;
38132;SDS011;23948;43.252;26.572;2023-04-08T07:41:27;24.42;;;17.58;;
38132;SDS011;23948;43.252;26.572;2023-04-08T07:43:53;24.85;;;17.05;;
38132;SDS011;23948;43.252;26.572;2023-04-08T07:46:18;20.23;;;14.90;;
38132;SDS011;23948;43.252;26.572;2023-04-08T07:48:45;19.40;;;15.32;;
38132;SDS011;23948;43.252;26.572;2023-04-08T07:51:10;18.85;;;15.40;;
38132;SDS011;23948;43.252;26.572;2023-04-08T07:53:36;19.92;;;14.55;;
38132;SDS011;23948;43.252;26.572;2023-04-08T07:56:01;19.90;;;16.10;;
38132;SDS011;23948;43.252;26.572;2023-04-08T07:58:30;22.20;;;16.85;;
38132;SDS011;23948;43.252;26.572;2023-04-08T08:00:56;18.17;;;14.23;;
38132;SDS011;23948;43.252;26.572;2023-04-08T08:03:21;21.90;;;15.88;;
38132;SDS011;23948;43.252;26.572;2023-04-08T08:05:46;17.25;;;13.80;;
38132;SDS011;23948;43.252;26.572;2023-04-08T08:08:12;19.10;;;14.63;;
38132;SDS011;23948;43.252;26.572;2023-04-08T08:10:37;19.75;;;14.55;;
38132;SDS011;23948;43.252;26.572;2023-04-08T08:13:03;17.10;;;13.73;;
38132;SDS011;23948;43.252;26.572;2023-04-08T08:15:28;18.23;;;15.13;;
38132;SDS011;23948;43.252;26.572;2023-04-08T08:17:54;21.55;;;15.27;;
38132;SDS011;23948;43.252;26.572;2023-04-08T08:20:19;17.90;;;14.68;;
38132;SDS011;23948;43.252;26.572;2023-04-08T08:22:45;20.65;;;15.77;;
38132;SDS011;23948;43.252;26.572;2023-04-08T08:25:10;20.45;;;15.13;;
38132;SDS011;23948;43.252;26.572;2023-04-08T08:27:35;19.80;;;14.73;;
38132;SDS011;23948;43.252;26.572;2023-04-08T08:30:01;19.55;;;14.30;;
38132;SDS011;23948;43.252;26.572;2023-04-08T08:32:27;21.05;;;15.48;;
38132;SDS011;23948;43.252;26.572;2023-04-08T08:34:53;20.95;;;14.98;;
38132;SDS011;23948;43.252;26.572;2023-04-08T08:37:18;22.90;;;14.77;;
38132;SDS011;23948;43.252;26.572;2023-04-08T08:39:43;21.92;;;18.88;;
38132;SDS011;23948;43.252;26.572;2023-04-08T08:42:21;28.67;;;22.85;;
38132;SDS011;23948;43.252;26.572;2023-04-08T08:44:47;22.52;;;16.63;;
38132;SDS011;23948;43.252;26.572;2023-04-08T08:47:12;20.02;;;14.35;;
38132;SDS011;23948;43.252;26.572;2023-04-08T08:49:38;19.08;;;14.63;;
38132;SDS011;23948;43.252;26.572;2023-04-08T08:52:03;20.38;;;14.40;;
38132;SDS011;23948;43.252;26.572;2023-04-08T08:54:28;17.15;;;13.05;;
38132;SDS011;23948;43.252;26.572;2023-04-08T08:56:53;19.65;;;14.18;;
38132;SDS011;23948;43.252;26.572;2023-04-08T08:59:19;20.27;;;15.48;;
38132;SDS011;23948;43.252;26.572;2023-04-08T09:01:44;18.80;;;14.77;;
38132;SDS011;23948;43.252;26.572;2023-04-08T09:04:18;22.95;;;16.73;;
38132;SDS011;23948;43.252;26.572;2023-04-08T09:06:44;18.52;;;14.10;;
38132;SDS011;23948;43.252;26.572;2023-04-08T09:09:10;20.08;;;13.73;;
38132;SDS011;23948;43.252;26.572;2023-04-08T09:11:36;15.52;;;12.77;;
38132;SDS011;23948;43.252;26.572;2023-04-08T09:14:02;19.73;;;13.50;;
38132;SDS011;23948;43.252;26.572;2023-04-08T09:16:28;16.17;;;12.05;;
38132;SDS011;23948;43.252;26.572;2023-04-08T09:18:55;14.93;;;12.60;;
38132;SDS011;23948;43.252;26.572;2023-04-08T09:21:32;14.75;;;12.57;;
38132;SDS011;23948;43.252;26.572;2023-04-08T09:23:57;17.27;;;12.45;;
38132;SDS011;23948;43.252;26.572;2023-04-08T09:26:23;17.42;;;12.80;;
38132;SDS011;23948;43.252;26.572;2023-04-08T09:29:08;16.38;;;13.10;;
38132;SDS011;23948;43.252;26.572;2023-04-08T09:31:34;18.95;;;11.68;;
38132;SDS011;23948;43.252;26.572;2023-04-08T09:34:09;21.75;;;15.60;;
38132;SDS011;23948;43.252;26.572;2023-04-08T09:36:34;16.67;;;13.75;;
38132;SDS011;23948;43.252;26.572;2023-04-08T09:39:00;14.98;;;10.90;;
38132;SDS011;23948;43.252;26.572;2023-04-08T09:41:25;14.88;;;10.63;;
38132;SDS011;23948;43.252;26.572;2023-04-08T09:43:52;14.82;;;10.57;;
38132;SDS011;23948;43.252;26.572;2023-04-08T09:46:23;14.70;;;10.95;;
38132;SDS011;23948;43.252;26.572;2023-04-08T09:48:54;17.17;;;11.45;;
38132;SDS011;23948;43.252;26.572;2023-04-08T09:51:20;18.23;;;11.00;;
38132;SDS011;23948;43.252;26.572;2023-04-08T09:53:49;20.83;;;13.00;;
38132;SDS011;23948;43.252;26.572;2023-04-08T09:56:16;18.08;;;13.55;;
38132;SDS011;23948;43.252;26.572;2023-04-08T09:58:48;14.55;;;11.32;;
38132;SDS011;23948;43.252;26.572;2023-04-08T10:01:16;12.27;;;10.57;;
38132;SDS011;23948;43.252;26.572;2023-04-08T10:03:48;14.10;;;10.02;;
38132;SDS011;23948;43.252;26.572;2023-04-08T10:06:16;14.85;;;11.45;;
38132;SDS011;23948;43.252;26.572;2023-04-08T10:08:42;15.90;;;11.70;;
38132;SDS011;23948;43.252;26.572;2023-04-08T10:11:08;12.80;;;9.65;;
38132;SDS011;23948;43.252;26.572;2023-04-08T10:13:33;12.38;;;9.60;;
38132;SDS011;23948;43.252;26.572;2023-04-08T10:16:17;13.60;;;10.02;;
38132;SDS011;23948;43.252;26.572;2023-04-08T10:18:43;11.98;;;9.10;;
38132;SDS011;23948;43.252;26.572;2023-04-08T10:23:54;11.50;;;9.70;;
38132;SDS011;23948;43.252;26.572;2023-04-08T10:26:29;14.73;;;9.82;;
38132;SDS011;23948;43.252;26.572;2023-04-08T10:29:04;11.38;;;9.35;;
38132;SDS011;23948;43.252;26.572;2023-04-08T10:31:41;13.52;;;8.77;;
38132;SDS011;23948;43.252;26.572;2023-04-08T10:34:22;11.27;;;8.85;;
38132;SDS011;23948;43.252;26.572;2023-04-08T10:36:51;12.80;;;9.98;;
38132;SDS011;23948;43.252;26.572;2023-04-08T10:39:17;10.80;;;9.23;;
38132;SDS011;23948;43.252;26.572;2023-04-08T10:41:43;12.40;;;8.68;;
38132;SDS011;23948;43.252;26.572;2023-04-08T10:44:18;10.55;;;8.63;;
38132;SDS011;23948;43.252;26.572;2023-04-08T10:46:44;11.82;;;8.23;;
38132;SDS011;23948;43.252;26.572;2023-04-08T10:49:10;11.50;;;9.60;;
38132;SDS011;23948;43.252;26.572;2023-04-08T10:51:35;11.45;;;8.70;;
38132;SDS011;23948;43.252;26.572;2023-04-08T10:54:07;11.05;;;8.93;;
38132;SDS011;23948;43.252;26.572;2023-04-08T10:56:33;11.38;;;9.70;;
38132;SDS011;23948;43.252;26.572;2023-04-08T10:58:59;12.18;;;9.05;;
38132;SDS011;23948;43.252;26.572;2023-04-08T11:01:25;18.70;;;11.82;;
38132;SDS011;23948;43.252;26.572;2023-04-08T11:03:51;11.57;;;9.05;;
38132;SDS011;23948;43.252;26.572;2023-04-08T11:06:16;11.05;;;9.32;;
38132;SDS011;23948;43.252;26.572;2023-04-08T11:08:41;10.80;;;8.77;;
38132;SDS011;23948;43.252;26.572;2023-04-08T11:11:08;11.75;;;9.43;;
38132;SDS011;23948;43.252;26.572;2023-04-08T11:13:39;11.65;;;8.20;;
38132;SDS011;23948;43.252;26.572;2023-04-08T11:16:05;10.75;;;8.13;;
38132;SDS011;23948;43.252;26.572;2023-04-08T11:18:31;10.73;;;8.63;;
38132;SDS011;23948;43.252;26.572;2023-04-08T11:20:56;18.30;;;9.48;;
38132;SDS011;23948;43.252;26.572;2023-04-08T11:23:25;10.63;;;8.70;;
38132;SDS011;23948;43.252;26.572;2023-04-08T11:25:50;10.95;;;7.78;;
38132;SDS011;23948;43.252;26.572;2023-04-08T11:28:16;11.32;;;8.73;;
38132;SDS011;23948;43.252;26.572;2023-04-08T11:30:41;12.15;;;9.13;;
38132;SDS011;23948;43.252;26.572;2023-04-08T11:33:07;12.45;;;8.75;;
38132;SDS011;23948;43.252;26.572;2023-04-08T11:35:33;18.63;;;10.93;;
38132;SDS011;23948;43.252;26.572;2023-04-08T11:37:58;12.50;;;10.05;;
38132;SDS011;23948;43.252;26.572;2023-04-08T11:40:23;16.13;;;11.63;;
38132;SDS011;23948;43.252;26.572;2023-04-08T11:42:50;11.93;;;9.80;;
38132;SDS011;23948;43.252;26.572;2023-04-08T11:45:16;16.52;;;11.93;;
38132;SDS011;23948;43.252;26.572;2023-04-08T11:47:42;16.38;;;12.55;;
38132;SDS011;23948;43.252;26.572;2023-04-08T11:50:08;18.92;;;13.40;;
38132;SDS011;23948;43.252;26.572;2023-04-08T11:55:05;15.65;;;12.38;;
38132;SDS011;23948;43.252;26.572;2023-04-08T11:57:31;13.68;;;10.98;;
38132;SDS011;23948;43.252;26.572;2023-04-08T11:59:56;20.15;;;14.73;;
38132;SDS011;23948;43.252;26.572;2023-04-08T12:02:22;14.38;;;12.77;;
38132;SDS011;23948;43.252;26.572;2023-04-08T12:04:47;17.75;;;14.07;;
38132;SDS011;23948;43.252;26.572;2023-04-08T12:07:13;14.80;;;13.15;;
38132;SDS011;23948;43.252;26.572;2023-04-08T12:09:38;16.67;;;13.13;;
38132;SDS011;23948;43.252;26.572;2023-04-08T12:12:03;14.02;;;12.25;;
38132;SDS011;23948;43.252;26.572;2023-04-08T12:14:29;16.10;;;13.40;;
38132;SDS011;23948;43.252;26.572;2023-04-08T12:16:54;18.42;;;14.77;;
38132;SDS011;23948;43.252;26.572;2023-04-08T12:19:20;20.85;;;15.90;;
38132;SDS011;23948;43.252;26.572;2023-04-08T12:21:45;19.63;;;15.38;;
38132;SDS011;23948;43.252;26.572;2023-04-08T12:24:10;14.52;;;12.02;;
38132;SDS011;23948;43.252;26.572;2023-04-08T12:26:36;18.50;;;14.35;;
38132;SDS011;23948;43.252;26.572;2023-04-08T12:29:01;18.00;;;13.05;;
38132;SDS011;23948;43.252;26.572;2023-04-08T12:31:26;16.38;;;13.32;;
38132;SDS011;23948;43.252;26.572;2023-04-08T12:33:52;18.20;;;14.25;;
38132;SDS011;23948;43.252;26.572;2023-04-08T12:36:18;16.48;;;12.90;;
38132;SDS011;23948;43.252;26.572;2023-04-08T12:38:43;15.52;;;12.27;;
38132;SDS011;23948;43.252;26.572;2023-04-08T12:41:08;16.08;;;10.50;;
38132;SDS011;23948;43.252;26.572;2023-04-08T12:43:33;14.27;;;11.05;;
38132;SDS011;23948;43.252;26.572;2023-04-08T12:45:59;13.45;;;11.82;;
38132;SDS011;23948;43.252;26.572;2023-04-08T12:48:26;12.27;;;10.95;;
38132;SDS011;23948;43.252;26.572;2023-04-08T12:50:51;14.70;;;11.25;;
38132;SDS011;23948;43.252;26.572;2023-04-08T12:53:17;17.17;;;14.23;;
38132;SDS011;23948;43.252;26.572;2023-04-08T12:55:43;22.13;;;15.50;;
38132;SDS011;23948;43.252;26.572;2023-04-08T12:58:08;25.05;;;19.00;;
38132;SDS011;23948;43.252;26.572;2023-04-08T13:00:33;21.02;;;17.45;;
38132;SDS011;23948;43.252;26.572;2023-04-08T13:03:01;14.82;;;11.90;;
38132;SDS011;23948;43.252;26.572;2023-04-08T13:05:27;14.15;;;11.40;;
38132;SDS011;23948;43.252;26.572;2023-04-08T13:07:52;14.45;;;11.35;;
38132;SDS011;23948;43.252;26.572;2023-04-08T13:10:17;14.15;;;11.93;;
38132;SDS011;23948;43.252;26.572;2023-04-08T13:12:42;14.18;;;11.50;;
38132;SDS011;23948;43.252;26.572;2023-04-08T13:15:08;15.13;;;11.82;;
38132;SDS011;23948;43.252;26.572;2023-04-08T13:17:34;18.30;;;11.45;;
38132;SDS011;23948;43.252;26.572;2023-04-08T13:19:59;13.75;;;11.70;;
38132;SDS011;23948;43.252;26.572;2023-04-08T13:22:25;15.13;;;11.55;;
38132;SDS011;23948;43.252;26.572;2023-04-08T13:24:50;19.38;;;14.80;;
38132;SDS011;23948;43.252;26.572;2023-04-08T13:27:16;17.70;;;13.10;;
38132;SDS011;23948;43.252;26.572;2023-04-08T13:29:41;21.40;;;15.63;;
38132;SDS011;23948;43.252;26.572;2023-04-08T13:32:06;15.55;;;12.15;;
38132;SDS011;23948;43.252;26.572;2023-04-08T13:34:32;18.02;;;13.73;;
38132;SDS011;23948;43.252;26.572;2023-04-08T13:36:57;18.73;;;14.15;;
38132;SDS011;23948;43.252;26.572;2023-04-08T13:39:23;18.73;;;13.77;;
38132;SDS011;23948;43.252;26.572;2023-04-08T13:41:48;15.43;;;12.95;;
38132;SDS011;23948;43.252;26.572;2023-04-08T13:44:13;17.88;;;14.02;;
38132;SDS011;23948;43.252;26.572;2023-04-08T13:46:41;21.25;;;14.10;;
38132;SDS011;23948;43.252;26.572;2023-04-08T13:49:06;21.20;;;14.70;;
38132;SDS011;23948;43.252;26.572;2023-04-08T13:51:31;17.17;;;13.38;;
38132;SDS011;23948;43.252;26.572;2023-04-08T13:53:57;16.70;;;13.32;;
38132;SDS011;23948;43.252;26.572;2023-04-08T13:56:22;14.27;;;11.18;;
38132;SDS011;23948;43.252;26.572;2023-04-08T13:58:47;16.88;;;12.50;;
38132;SDS011;23948;43.252;26.572;2023-04-08T14:01:13;23.90;;;15.88;;
38132;SDS011;23948;43.252;26.572;2023-04-08T14:03:38;23.50;;;17.75;;
38132;SDS011;23948;43.252;26.572;2023-04-08T14:06:03;16.50;;;13.63;;
38132;SDS011;23948;43.252;26.572;2023-04-08T14:08:28;21.80;;;13.80;;
38132;SDS011;23948;43.252;26.572;2023-04-08T14:10:54;16.02;;;13.10;;
38132;SDS011;23948;43.252;26.572;2023-04-08T14:13:19;18.17;;;14.30;;
38132;SDS011;23948;43.252;26.572;2023-04-08T14:15:45;18.95;;;14.80;;